Time;durP1;ratioP1;P1;durP2;ratioP2;P2;SDS_P1;SDS_P2;PMS_P1;PMS_P2;Temp;Humidity;BMP_temperature;BMP_pressure;BME280_temperature;BME280_humidity;BME280_pressure;Samples;Min_cycle;Max_cycle;Signal;HPM_P1;HPM_P2
2024/02/15 00:00:35;;;;;;;1.67;0.77;;;;;;;;;;5110648;28;20058;-85
2024/02/15 00:03:06;;;;;;;4.32;1.00;;;;;;;;;;5111221;28;20039;-85
2024/02/15 00:06:02;;;;;;;3.93;1.13;;;;;;;;;;5107630;28;20464;-84
2024/02/15 00:08:28;;;;;;;;;;;;;;;;;;5105437;28;20032;-85
2024/02/15 00:10:56;;;;;;;5.00;1.00;;;;;;;;;;5109981;28;19943;-84
2024/02/15 00:13:22;;;;;;;1.45;0.32;;;;;;;;;;5110120;28;20035;-84
2024/02/15 00:15:54;;;;;;;4.32;0.93;;;;;;;;;;5092762;28;20570;-84
2024/02/15 00:18:20;;;;;;;2.03;0.43;;;;;;;;;;5090573;28;20036;-84
2024/02/15 00:35:23;;;;;;;;;;;;;;;;;;;;;
2024/02/15 00:37:51;;;;;;;2.05;0.52;;;;;;;;;;4972703;28;20045;-84
2024/02/15 00:40:21;;;;;;;0.80;0.22;;;;;;;;;;4980582;28;20042;-84
2024/02/15 00:43:04;;;;;;;3.45;0.57;;;;;;;;;;4991164;28;20026;-85
2024/02/15 00:45:30;;;;;;;3.25;0.88;;;;;;;;;;4965205;28;20030;-84
2024/02/15 00:48:06;;;;;;;3.63;0.52;;;;;;;;;;4973649;28;20032;-84
2024/02/15 00:50:34;;;;;;;;;;;;;;;;;;4969337;28;20034;-84
2024/02/15 00:53:00;;;;;;;;;;;;;;;;;;4974809;28;20032;-84
2024/02/15 00:55:31;;;;;;;;;;;;;;;;;;4971632;28;20020;-84
2024/02/15 00:58:00;;;;;;;;;;;;;;;;;;4976433;28;19918;-85
2024/02/15 01:00:42;;;;;;;;;;;;;;;;;;;;;
2024/02/15 01:03:18;;;;;;;;;;;;;;;;;;4993507;28;19914;-85
2024/02/15 01:05:44;;;;;;;;;;;;;;;;;;4981706;28;20458;-85
2024/02/15 01:08:13;;;;;;;;;;;;;;;;;;4990842;28;19944;-85
2024/02/15 01:10:56;;;;;;;;;;;;;;;;;;4976983;28;19924;-85
2024/02/15 01:13:23;;;;;;;;;;;;;;;;;;4980333;28;19910;-85
2024/02/15 01:15:49;;;;;;;;;;;;;;;;;;4971703;28;19918;-85
2024/02/15 01:18:15;;;;;;;;;;;;;;;;;;4989345;28;20355;-85
2024/02/15 01:20:47;;;;;;;;;;;;;;;;;;4986249;28;19952;-85
2024/02/15 01:23:20;;;;;;;;;;;;;;;;;;4973720;28;19969;-85
2024/02/15 01:25:46;;;;;;;;;;;;;;;;;;4973644;28;20000;-85
2024/02/15 01:28:27;;;;;;;;;;;;;;;;;;4990658;23;20008;-85
2024/02/15 01:30:54;;;;;;;;;;;;;;;;;;5030578;28;19908;-85
2024/02/15 01:33:20;;;;;;;;;;;;;;;;;;5033944;28;20786;-85
2024/02/15 01:36:00;;;;;;;;;;;;;;;;;;5037247;28;20011;-85
2024/02/15 01:38:29;;;;;;;1.55;0.28;;;;;;;;;;5037158;28;19917;-84
2024/02/15 01:40:55;;;;;;;;;;;;;;;;;;5015380;28;20034;-84
2024/02/15 01:43:23;;;;;;;4.32;0.43;;;;;;;;;;5034382;28;19909;-84
2024/02/15 01:45:52;;;;;;;;;;;;;;;;;;5016817;28;20188;-84
2024/02/15 01:48:47;;;;;;;2.53;0.65;;;;;;;;;;5035827;28;19916;-84
2024/02/15 01:51:19;;;;;;;1.55;0.20;;;;;;;;;;5030144;28;20102;-85
2024/02/15 01:53:56;;;;;;;0.85;0.28;;;;;;;;;;5016514;28;20067;-84
2024/02/15 01:56:25;;;;;;;1.27;0.20;;;;;;;;;;5013475;28;20055;-85
2024/02/15 01:58:51;;;;;;;1.20;0.30;;;;;;;;;;5014606;28;20475;-85
2024/02/15 02:01:20;;;;;;;;;;;;;;;;;;5028965;28;20033;-85
2024/02/15 02:03:49;;;;;;;;;;;;;;;;;;5017774;28;19927;-85
2024/02/15 02:06:17;;;;;;;;;;;;;;;;;;5033738;28;20023;-85
2024/02/15 02:08:57;;;;;;;3.35;0.65;;;;;;;;;;5009571;28;20016;-85
2024/02/15 02:11:29;;;;;;;1.05;0.40;;;;;;;;;;5022642;28;20100;-84
2024/02/15 02:17:25;;;;;;;4.22;0.90;;;;;;;;;;5038889;28;20393;-84
2024/02/15 02:19:51;;;;;;;1.15;0.45;;;;;;;;;;5052757;28;20113;-84
2024/02/15 02:22:23;;;;;;;1.58;0.47;;;;;;;;;;5046505;28;20032;-84
2024/02/15 02:25:03;;;;;;;3.10;0.67;;;;;;;;;;5048756;28;20048;-84
2024/02/15 02:27:31;;;;;;;2.90;0.47;;;;;;;;;;5039135;28;20283;-84
2024/02/15 02:30:00;;;;;;;3.17;1.20;;;;;;;;;;5051753;28;20123;-85
2024/02/15 02:32:55;;;;;;;2.78;0.75;;;;;;;;;;5046732;28;20056;-84
2024/02/15 02:35:44;;;;;;;10.10;0.77;;;;;;;;;;5051582;28;20037;-85
2024/02/15 02:38:17;;;;;;;4.40;0.88;;;;;;;;;;5043006;28;20102;-85
2024/02/15 02:56:04;;;;;;;3.42;1.15;;;;;;;;;;5051195;28;20975;-85
2024/02/15 02:59:04;;;;;;;4.55;0.70;;;;;;;;;;5044092;28;21231;-85
2024/02/15 03:01:49;;;;;;;;;;;;;;;;;;;;;
2024/02/15 03:11:15;;;;;;;2.58;0.50;;;;;;;;;;5068009;28;20387;-84
2024/02/15 03:13:54;;;;;;;2.15;0.38;;;;;;;;;;5037297;28;20041;-85
2024/02/15 03:16:32;;;;;;;0.40;0.20;;;;;;;;;;5052664;28;20136;-85
2024/02/15 03:19:31;;;;;;;1.35;0.50;;;;;;;;;;5010473;28;20041;-84
2024/02/15 03:22:04;;;;;;;1.77;0.40;;;;;;;;;;5049150;28;20041;-85
2024/02/15 03:24:34;;;;;;;0.43;0.10;;;;;;;;;;5030080;28;20083;-84
2024/02/15 03:27:02;;;;;;;1.08;0.30;;;;;;;;;;5006950;28;20046;-85
2024/02/15 03:29:33;;;;;;;1.17;0.20;;;;;;;;;;5013670;28;20044;-84
2024/02/15 03:32:05;;;;;;;0.95;0.30;;;;;;;;;;5027727;28;20038;-84
2024/02/15 03:34:43;;;;;;;5.30;0.22;;;;;;;;;;5013491;28;20041;-84
2024/02/15 03:37:14;;;;;;;0.73;0.20;;;;;;;;;;5017760;28;20255;-85
2024/02/15 03:39:43;;;;;;;16.35;1.95;;;;;;;;;;5017092;28;20045;-85
2024/02/15 03:42:43;;;;;;;0.95;0.43;;;;;;;;;;5012255;28;20406;-84
2024/02/15 03:45:12;;;;;;;1.90;0.60;;;;;;;;;;4993545;28;20046;-84
2024/02/15 03:47:38;;;;;;;2.45;0.52;;;;;;;;;;4999211;28;20034;-84
2024/02/15 03:50:09;;;;;;;3.57;0.50;;;;;;;;;;5031046;28;20472;-84
2024/02/15 03:52:38;;;;;;;2.25;0.57;;;;;;;;;;5038248;28;20163;-83
2024/02/15 03:55:10;;;;;;;1.75;0.43;;;;;;;;;;5051034;28;20090;-85
2024/02/15 03:57:45;;;;;;;0.73;0.20;;;;;;;;;;5034927;28;20497;-85
2024/02/15 04:00:23;;;;;;;8.02;0.70;;;;;;;;;;5056578;28;20170;-85
2024/02/15 04:03:01;;;;;;;2.22;0.20;;;;;;;;;;5053619;28;20063;-84
2024/02/15 04:05:27;;;;;;;1.50;0.17;;;;;;;;;;5035147;28;20037;-84
2024/02/15 04:07:58;;;;;;;1.10;0.40;;;;;;;;;;5036511;28;20040;-84
2024/02/15 04:10:24;;;;;;;1.05;0.15;;;;;;;;;;5037376;28;20488;-84
2024/02/15 04:13:27;;;;;;;2.90;0.90;;;;;;;;;;5033948;28;20094;-85
2024/02/15 04:16:09;;;;;;;;;;;;;;;;;;;;;
2024/02/15 04:18:47;;;;;;;2.92;0.57;;;;;;;;;;5065229;28;20226;-85
2024/02/15 04:22:07;;;;;;;4.93;1.48;;;;;;;;;;5033991;28;20045;-84
2024/02/15 04:24:51;;;;;;;4.50;1.75;;;;;;;;;;5058236;28;20371;-84
2024/02/15 04:27:20;;;;;;;4.93;1.08;;;;;;;;;;5038644;28;20041;-84
2024/02/15 04:29:50;;;;;;;14.52;1.05;;;;;;;;;;5052866;28;20081;-84
2024/02/15 04:35:51;;;;;;;13.38;2.75;;;;;;;;;;5061478;28;20070;-85
2024/02/15 04:40:59;;;;;;;;;;;;;;;;;;;;;
2024/02/15 04:43:29;;;;;;;;;;;;;;;;;;5051318;28;20040;-85
2024/02/15 04:46:20;;;;;;;38.25;11.00;;;;;;;;;;5044826;28;19921;-84
2024/02/15 04:49:01;;;;;;;21.27;4.93;;;;;;;;;;5050665;28;20378;-85
2024/02/15 04:51:51;;;;;;;11.23;2.65;;;;;;;;;;5044884;28;20033;-84
2024/02/15 04:54:40;;;;;;;12.73;2.72;;;;;;;;;;5035123;28;20044;-85
2024/02/15 04:57:11;;;;;;;;;;;;;;;;;;5033963;28;20063;-84
2024/02/15 04:59:48;;;;;;;6.43;1.50;;;;;;;;;;5052749;28;19912;-84
2024/02/15 05:02:17;;;;;;;6.20;1.15;;;;;;;;;;5049290;28;20033;-84
2024/02/15 05:04:45;;;;;;;3.25;0.95;;;;;;;;;;5037005;28;20036;-84
2024/02/15 05:07:16;;;;;;;7.80;2.45;;;;;;;;;;5034802;28;20040;-83
2024/02/15 05:09:43;;;;;;;9.05;1.60;;;;;;;;;;5038155;28;20083;-84
2024/02/15 05:12:09;;;;;;;11.00;3.70;;;;;;;;;;5033246;28;20075;-84
2024/02/15 05:14:37;;;;;;;;;;;;;;;;;;5054344;28;20047;-84
2024/02/15 05:17:04;;;;;;;13.98;3.38;;;;;;;;;;5046748;28;20737;-84
2024/02/15 05:19:30;;;;;;;3.13;1.33;;;;;;;;;;5041693;28;20051;-84
2024/02/15 05:21:56;;;;;;;7.80;2.33;;;;;;;;;;5040287;28;20040;-83
2024/02/15 05:24:22;;;;;;;7.50;1.85;;;;;;;;;;5049372;28;20711;-84
2024/02/15 05:26:53;;;;;;;5.07;0.95;;;;;;;;;;5041036;28;20059;-84
2024/02/15 05:29:23;;;;;;;3.75;1.60;;;;;;;;;;5037869;28;20570;-85
2024/02/15 05:31:59;;;;;;;6.10;1.25;;;;;;;;;;5036663;28;20455;-85
2024/02/15 05:34:31;;;;;;;1.90;0.68;;;;;;;;;;5033243;28;20804;-85
2024/02/15 05:37:10;;;;;;;1.17;0.28;;;;;;;;;;5046622;28;20040;-85
2024/02/15 05:39:39;;;;;;;0.63;0.30;;;;;;;;;;5052807;28;20617;-85
2024/02/15 05:42:10;;;;;;;1.95;0.80;;;;;;;;;;5043885;28;20036;-85
2024/02/15 05:44:44;;;;;;;2.00;0.40;;;;;;;;;;5033528;28;20052;-85
2024/02/15 05:47:12;;;;;;;5.15;0.25;;;;;;;;;;5046907;28;20040;-85
2024/02/15 05:49:44;;;;;;;5.85;0.43;;;;;;;;;;5052238;28;20043;-85
2024/02/15 05:52:12;;;;;;;3.00;0.68;;;;;;;;;;5045234;28;20432;-83
2024/02/15 05:54:39;;;;;;;4.22;1.30;;;;;;;;;;5052598;28;20871;-84
2024/02/15 05:57:05;;;;;;;4.75;1.52;;;;;;;;;;5046179;28;20063;-84
2024/02/15 05:59:31;;;;;;;2.15;0.50;;;;;;;;;;5069074;28;20032;-83
2024/02/15 06:01:57;;;;;;;3.33;1.00;;;;;;;;;;5061334;28;20037;-83
2024/02/15 06:04:25;;;;;;;3.92;1.05;;;;;;;;;;5032235;28;20044;-84
2024/02/15 06:06:58;;;;;;;0.93;0.70;;;;;;;;;;5036953;28;20534;-84
2024/02/15 06:09:34;;;;;;;3.40;0.45;;;;;;;;;;5032145;28;20032;-84
2024/02/15 06:12:00;;;;;;;4.30;1.05;;;;;;;;;;5123937;22;20469;-84
2024/02/15 06:14:27;;;;;;;;;;;;;;;;;;5022890;28;20475;-83
2024/02/15 06:16:55;;;;;;;1.15;0.55;;;;;;;;;;5031983;28;19958;-82
2024/02/15 06:19:21;;;;;;;1.50;0.52;;;;;;;;;;5019120;28;20031;-82
2024/02/15 06:21:47;;;;;;;1.60;0.45;;;;;;;;;;5050736;28;20075;-82
2024/02/15 06:24:14;;;;;;;;;;;;;;;;;;5032817;28;20080;-84
2024/02/15 06:26:40;;;;;;;5.13;1.13;;;;;;;;;;5034300;28;19916;-85
2024/02/15 06:40:23;;;;;;;6.82;1.00;;;;;;;;;;5047617;28;20999;-83
2024/02/15 06:43:04;;;;;;;3.60;1.13;;;;;;;;;;5031759;28;20056;-85
2024/02/15 06:45:37;;;;;;;;;;;;;;;;;;5052109;28;20068;-85
2024/02/15 06:48:11;;;;;;;1.27;0.93;;;;;;;;;;5022255;28;19909;-84
2024/02/15 07:12:47;;;;;;;5.20;0.90;;;;;;;;;;5004803;28;20050;-86
2024/02/15 07:18:16;;;;;;;;;;;;;;;;;;;;;
2024/02/15 07:21:13;;;;;;;4.97;1.00;;;;;;;;;;5054195;23;20424;-86
2024/02/15 07:23:42;;;;;;;8.82;1.80;;;;;;;;;;5067174;22;20997;-85
2024/02/15 07:26:27;;;;;;;4.72;0.90;;;;;;;;;;5052005;28;20490;-84
2024/02/15 07:29:02;;;;;;;3.47;0.88;;;;;;;;;;5036689;28;20037;-85
2024/02/15 07:31:53;;;;;;;6.50;2.28;;;;;;;;;;5045978;28;20055;-84
2024/02/15 07:34:29;;;;;;;6.75;1.55;;;;;;;;;;5049277;28;20072;-85
2024/02/15 07:37:23;;;;;;;;;;;;;;;;;;;;;
2024/02/15 07:40:03;;;;;;;2.45;0.80;;;;;;;;;;5055097;28;20039;-85
2024/02/15 07:42:52;;;;;;;3.28;0.88;;;;;;;;;;5044316;28;20521;-86
2024/02/15 07:45:17;;;;;;;1.38;0.50;;;;;;;;;;5032956;28;20044;-84
2024/02/15 07:47:48;;;;;;;2.50;0.70;;;;;;;;;;5038858;28;20021;-84
2024/02/15 07:50:48;;;;;;;;;;;;;;;;;;;;;
2024/02/15 07:59:39;;;;;;;;;;;;;;;;;;;;;
2024/02/15 08:02:40;;;;;;;;;;;;;;;;;;;;;
2024/02/15 08:48:37;;;;;;;3.47;0.88;;;;;;;;;;5128572;23;20196;-85
2024/02/15 09:02:08;;;;;;;;;;;;;;;;;;4991049;28;19941;-85
2024/02/15 09:05:31;;;;;;;5.72;1.08;;;;;;;;;;4967970;28;19933;-85
2024/02/15 09:08:29;;;;;;;7.35;0.95;;;;;;;;;;4998866;23;20125;-85
2024/02/15 12:43:57;;;;;;;;;;;;;;;;;;;;;
2024/02/15 12:50:18;;;;;;;1.25;0.55;;;;;;;;;;4837290;24;20142;-87
2024/02/15 12:59:26;;;;;;;1.65;0.30;;;;;;;;;;4819750;29;20094;-85
2024/02/15 14:10:20;;;;;;;;;;;;;;;;;;;;;
2024/02/15 14:12:59;;;;;;;;;;;;;;;;;;;;;
2024/02/15 14:15:51;;;;;;;;;;;;;;;;;;;;;
2024/02/15 14:18:44;;;;;;;2.75;0.40;;;;;;;;;;4778065;30;20412;-86
2024/02/15 14:21:25;;;;;;;1.65;0.60;;;;;;;;;;4769138;30;20064;-86
2024/02/15 15:21:14;;;;;;;2.35;0.73;;;;;;;;;;4810404;29;20059;-86
2024/02/15 16:25:28;;;;;;;2.22;0.55;;;;;;;;;;4811725;27;20084;-85
2024/02/15 16:27:55;;;;;;;5.45;1.45;;;;;;;;;;4825122;29;20034;-84
2024/02/15 16:30:21;;;;;;;7.05;1.23;;;;;;;;;;4792956;29;20031;-84
2024/02/15 16:32:54;;;;;;;9.65;1.63;;;;;;;;;;4808626;29;20055;-85
2024/02/15 16:35:20;;;;;;;;;;;;;;;;;;4797909;29;20058;-85
2024/02/15 16:37:53;;;;;;;1.85;0.52;;;;;;;;;;5154522;24;20383;-85
2024/02/15 16:40:22;;;;;;;3.15;1.02;;;;;;;;;;4819746;29;20816;-85
2024/02/15 16:43:10;;;;;;;;;;;;;;;;;;;;;
2024/02/15 16:45:47;;;;;;;3.53;0.70;;;;;;;;;;4765103;30;20097;-84
2024/02/15 16:51:32;;;;;;;2.63;0.40;;;;;;;;;;4748344;30;20036;-85
2024/02/15 17:42:05;;;;;;;18.52;2.95;;;;;;;;;;4834042;29;20037;-86
2024/02/15 18:01:11;;;;;;;11.75;3.78;;;;;;;;;;4826209;29;20045;-84
2024/02/15 18:04:20;;;;;;;10.30;3.10;;;;;;;;;;4820440;29;20068;-86
2024/02/15 18:06:46;;;;;;;16.85;5.97;;;;;;;;;;4731803;30;20064;-85
2024/02/15 18:09:19;;;;;;;19.88;6.75;;;;;;;;;;4727906;30;20055;-84
2024/02/15 18:15:00;;;;;;;19.98;7.03;;;;;;;;;;4763845;29;20846;-86
2024/02/15 18:21:08;;;;;;;12.98;3.38;;;;;;;;;;4833074;29;20076;-87
2024/02/15 18:23:34;;;;;;;8.68;2.95;;;;;;;;;;4820034;29;20107;-85
2024/02/15 18:26:06;;;;;;;26.30;4.38;;;;;;;;;;4821476;29;20438;-86
2024/02/15 18:28:36;;;;;;;8.15;3.53;;;;;;;;;;4834761;29;20049;-86
2024/02/15 18:31:07;;;;;;;14.52;4.53;;;;;;;;;;4813909;29;20042;-84
2024/02/15 18:37:00;;;;;;;14.52;4.43;;;;;;;;;;4763732;30;20040;-87
2024/02/15 18:39:26;;;;;;;12.32;3.80;;;;;;;;;;4749869;30;20032;-81
2024/02/15 18:41:52;;;;;;;10.55;4.32;;;;;;;;;;4820542;29;20037;-82
2024/02/15 18:44:18;;;;;;;14.32;3.35;;;;;;;;;;4832148;29;20030;-84
2024/02/15 18:46:58;;;;;;;8.88;2.88;;;;;;;;;;4843381;29;20037;-82
2024/02/15 18:49:24;;;;;;;4.22;0.88;;;;;;;;;;4832730;29;20032;-83
2024/02/15 18:51:53;;;;;;;3.60;0.73;;;;;;;;;;4843223;29;20110;-84
2024/02/15 19:11:02;;;;;;;3.80;1.00;;;;;;;;;;5174614;24;20073;-85
2024/02/15 19:37:34;;;;;;;3.80;0.85;;;;;;;;;;5366716;24;20084;-87
2024/02/15 19:40:24;;;;;;;;;;;;;;;;;;;;;
2024/02/15 19:43:33;;;;;;;;;;;;;;;;;;;;;
2024/02/15 19:46:38;;;;;;;;;;;;;;;;;;;;;
2024/02/15 20:02:57;;;;;;;8.35;2.05;;;;;;;;;;4914456;24;20057;-83
2024/02/15 20:05:26;;;;;;;8.32;2.92;;;;;;;;;;4806990;29;20498;-82
2024/02/15 20:07:52;;;;;;;15.45;3.65;;;;;;;;;;4835807;29;20037;-83
2024/02/15 20:10:18;;;;;;;14.43;4.93;;;;;;;;;;4807323;29;20064;-82
2024/02/15 20:12:44;;;;;;;19.42;4.07;;;;;;;;;;4807318;29;20175;-81
2024/02/15 20:15:10;;;;;;;15.13;3.38;;;;;;;;;;4835335;29;20461;-80
2024/02/15 20:17:37;;;;;;;7.13;2.03;;;;;;;;;;4830728;29;20058;-82
2024/02/15 20:20:04;;;;;;;7.53;1.42;;;;;;;;;;4826422;29;20042;-82
2024/02/15 20:22:30;;;;;;;3.95;1.27;;;;;;;;;;4826333;29;20138;-82
2024/02/15 20:36:05;;;;;;;5.78;1.38;;;;;;;;;;4836712;24;20102;-81
2024/02/15 20:38:31;;;;;;;11.25;1.15;;;;;;;;;;4824057;29;20834;-82
